createdAt,value
2023-03-12T00:04:36.515Z,3.97
2023-03-12T00:09:39.720Z,3.10
2023-03-12T00:14:41.909Z,3.50
2023-03-12T00:19:45.583Z,3.17
2023-03-12T00:24:52.114Z,3.05
2023-03-12T00:29:54.784Z,3.38
2023-03-12T00:34:57.105Z,3.17
2023-03-12T00:39:59.876Z,3.28
2023-03-12T00:45:02.138Z,2.40
2023-03-12T00:50:04.815Z,3.45
2023-03-12T00:55:07.268Z,3.45
2023-03-12T01:00:13.167Z,3.65
2023-03-12T01:05:16.614Z,3.83
2023-03-12T01:10:21.940Z,3.58
2023-03-12T01:15:25.180Z,3.67
2023-03-12T01:20:27.711Z,2.85
2023-03-12T01:25:29.876Z,3.72
2023-03-12T01:30:32.177Z,3.40
2023-03-12T01:35:39.819Z,3.80
2023-03-12T01:40:43.988Z,2.50
2023-03-12T01:46:16.638Z,2.03
2023-03-12T01:51:20.066Z,1.77
2023-03-12T01:56:22.721Z,1.52
2023-03-12T02:01:25.495Z,1.65
2023-03-12T02:06:53.698Z,1.90
2023-03-12T02:11:56.086Z,2.13
2023-03-12T02:16:58.857Z,1.67
2023-03-12T02:22:02.110Z,2.03
2023-03-12T02:27:06.467Z,2.08
2023-03-12T02:32:10.317Z,2.33
2023-03-12T02:37:12.455Z,1.65
2023-03-12T02:42:15.493Z,1.58
2023-03-12T02:47:18.057Z,2.50
2023-03-12T02:52:20.233Z,1.20
2023-03-12T02:57:22.435Z,1.42
2023-03-12T03:02:24.855Z,1.70
2023-03-12T03:07:26.961Z,1.15
2023-03-12T03:12:29.972Z,1.20
2023-03-12T03:17:32.211Z,1.10
2023-03-12T03:22:34.414Z,1.42
2023-03-12T03:27:36.707Z,1.05
2023-03-12T03:32:39.449Z,1.30
2023-03-12T03:37:41.591Z,1.05
2023-03-12T03:42:43.826Z,0.88
2023-03-12T03:47:46.928Z,0.88
2023-03-12T03:52:49.082Z,0.50
2023-03-12T03:57:51.254Z,0.70
2023-03-12T04:02:53.569Z,0.70
2023-03-12T04:07:56.662Z,0.80
2023-03-12T04:12:59.018Z,0.90
2023-03-12T04:18:01.233Z,0.90
2023-03-12T04:23:03.406Z,1.00
2023-03-12T04:28:06.654Z,1.13
2023-03-12T04:33:09.285Z,1.40
2023-03-12T04:38:11.979Z,0.90
2023-03-12T04:43:14.617Z,1.00
2023-03-12T04:48:16.723Z,0.82
2023-03-12T04:53:19.905Z,0.80
2023-03-12T04:58:22.768Z,1.10
2023-03-12T05:03:25.231Z,1.50
2023-03-12T05:08:27.516Z,1.00
2023-03-12T05:13:29.676Z,0.98
2023-03-12T05:18:31.942Z,0.88
2023-03-12T05:23:35.129Z,1.50
2023-03-12T05:28:37.241Z,1.42
2023-03-12T05:33:39.479Z,1.58
2023-03-12T05:38:43.045Z,1.30
2023-03-12T05:43:46.790Z,1.30
2023-03-12T05:48:49.007Z,1.50
2023-03-12T05:53:51.156Z,1.20
2023-03-12T05:58:53.765Z,2.38
2023-03-12T06:03:56.150Z,1.13
2023-03-12T06:08:58.311Z,1.20
2023-03-12T06:14:00.435Z,1.30
2023-03-12T06:19:04.296Z,1.02
2023-03-12T06:24:07.099Z,1.35
2023-03-12T06:29:09.357Z,1.20
2023-03-12T06:34:11.556Z,0.95
2023-03-12T06:39:13.841Z,1.00
2023-03-12T06:44:16.198Z,1.40
2023-03-12T06:49:19.348Z,1.50
2023-03-12T06:54:21.443Z,0.95
2023-03-12T06:59:25.275Z,1.10
2023-03-12T07:04:27.441Z,0.95
2023-03-12T07:09:29.674Z,1.00
2023-03-12T07:14:31.808Z,0.85
2023-03-12T07:19:34.023Z,2.03
2023-03-12T07:24:36.213Z,2.20
2023-03-12T07:29:38.426Z,1.38
2023-03-12T07:34:40.568Z,1.48
2023-03-12T07:39:44.788Z,1.42
2023-03-12T07:44:47.244Z,1.25
2023-03-12T07:55:11.251Z,1.20
2023-03-12T08:00:14.278Z,2.63
2023-03-12T08:05:16.655Z,3.00
2023-03-12T08:10:20.720Z,3.03
2023-03-12T08:15:23.060Z,4.00
2023-03-12T08:20:25.239Z,3.22
2023-03-12T08:25:27.842Z,1.73
2023-03-12T08:30:31.127Z,1.33
2023-03-12T08:35:33.292Z,1.50
2023-03-12T08:40:35.918Z,1.70
2023-03-12T08:45:38.210Z,1.50
2023-03-12T08:50:40.394Z,1.25
2023-03-12T08:55:42.622Z,1.60
2023-03-12T09:00:44.848Z,0.70
2023-03-12T09:05:46.978Z,0.88
2023-03-12T09:10:50.480Z,1.02
2023-03-12T09:15:52.563Z,0.82
2023-03-12T09:20:54.944Z,2.08
2023-03-12T09:25:57.709Z,1.45
2023-03-12T09:31:02.838Z,1.20
2023-03-12T09:36:05.284Z,1.73
2023-03-12T09:41:27.556Z,1.30
2023-03-12T09:46:47.572Z,1.30
2023-03-12T09:51:55.466Z,1.67
2023-03-12T09:57:03.445Z,1.48
2023-03-12T10:02:25.560Z,1.40
2023-03-12T10:07:42.014Z,1.80
2023-03-12T10:13:05.265Z,2.22
2023-03-12T10:18:38.748Z,2.28
2023-03-12T10:24:03.053Z,2.00
2023-03-12T10:29:16.540Z,1.85
2023-03-12T10:34:33.091Z,1.63
2023-03-12T10:39:35.822Z,1.80
2023-03-12T10:44:37.892Z,1.70
2023-03-12T10:49:40.913Z,1.73
2023-03-12T10:54:45.368Z,1.60
2023-03-12T10:59:49.323Z,2.67
2023-03-12T11:04:53.078Z,5.43
2023-03-12T11:10:26.352Z,7.50
2023-03-12T11:15:38.474Z,3.50
2023-03-12T11:20:41.081Z,9.15
2023-03-12T11:25:44.334Z,5.97
2023-03-12T11:30:47.372Z,3.05
2023-03-12T11:36:10.657Z,3.10
2023-03-12T11:41:47.831Z,3.10
2023-03-12T11:47:21.349Z,3.35
2023-03-12T11:52:41.333Z,3.10
2023-03-12T11:57:59.908Z,2.60
2023-03-12T12:03:16.289Z,3.00
2023-03-12T12:08:36.692Z,3.45
2023-03-12T12:19:40.571Z,3.42
2023-03-12T12:25:14.830Z,3.60
2023-03-12T12:30:41.580Z,2.92
2023-03-12T12:35:44.171Z,4.13
2023-03-12T12:40:55.002Z,3.85
2023-03-12T12:46:02.720Z,3.83
2023-03-12T12:51:08.783Z,2.53
2023-03-12T12:56:33.875Z,2.47
2023-03-12T13:01:38.381Z,3.33
2023-03-12T13:07:19.205Z,3.28
2023-03-12T13:12:50.852Z,3.35
2023-03-12T13:17:53.134Z,2.60
2023-03-12T13:23:07.310Z,2.40
2023-03-12T13:28:33.151Z,3.30
2023-03-12T13:33:48.852Z,2.03
2023-03-12T13:39:01.176Z,3.67
2023-03-12T13:44:38.793Z,2.50
2023-03-12T13:49:53.100Z,3.33
2023-03-12T13:55:07.013Z,2.78
2023-03-12T14:00:30.112Z,3.47
2023-03-12T14:05:36.135Z,3.08
2023-03-12T14:10:54.096Z,3.75
2023-03-12T14:16:14.603Z,3.22
2023-03-12T14:21:18.840Z,3.88
2023-03-12T14:26:40.330Z,2.80
2023-03-12T14:31:50.461Z,3.15
2023-03-12T14:37:10.538Z,4.22
2023-03-12T14:42:26.238Z,6.30
2023-03-12T14:47:28.970Z,4.28
2023-03-12T14:52:31.572Z,3.72
2023-03-12T14:57:34.122Z,2.97
2023-03-12T15:02:38.540Z,2.95
2023-03-12T15:07:43.148Z,2.50
2023-03-12T15:12:46.505Z,2.60
2023-03-12T15:17:50.068Z,2.88
2023-03-12T15:22:53.342Z,3.45
2023-03-12T15:28:22.972Z,2.67
2023-03-12T15:33:26.968Z,3.77
2023-03-12T15:38:33.301Z,5.90
2023-03-12T15:43:38.719Z,4.07
2023-03-12T15:48:42.049Z,3.35
2023-03-12T15:53:44.326Z,3.35
2023-03-12T15:58:46.543Z,43.42
2023-03-12T16:03:49.563Z,15.25
2023-03-12T16:09:03.453Z,2.80
2023-03-12T16:14:13.889Z,3.47
2023-03-12T16:19:19.135Z,9.73
2023-03-12T16:24:21.579Z,3.83
2023-03-12T16:29:31.899Z,4.18
2023-03-12T16:34:33.994Z,3.28
2023-03-12T16:39:36.296Z,4.00
2023-03-12T16:44:38.877Z,4.20
2023-03-12T16:49:41.400Z,5.63
2023-03-12T16:54:43.740Z,4.78
2023-03-12T16:59:46.772Z,7.75
2023-03-12T17:04:49.302Z,9.43
2023-03-12T17:09:52.371Z,9.23
2023-03-12T17:14:55.245Z,8.68
2023-03-12T17:20:01.233Z,9.73
2023-03-12T17:25:04.146Z,13.45
2023-03-12T17:30:09.140Z,10.35
2023-03-12T17:35:11.963Z,15.40
2023-03-12T17:40:15.519Z,16.83
2023-03-12T17:45:19.511Z,16.30
2023-03-12T17:50:22.622Z,13.27
2023-03-12T17:55:24.853Z,13.38
2023-03-12T18:00:26.985Z,12.93
2023-03-12T18:05:29.815Z,12.45
2023-03-12T18:10:34.966Z,14.50
2023-03-12T18:15:38.167Z,14.20
2023-03-12T18:20:41.155Z,15.63
2023-03-12T18:25:44.490Z,15.15
2023-03-12T18:30:48.016Z,15.50
2023-03-12T18:35:53.230Z,15.75
2023-03-12T18:41:19.546Z,14.48
2023-03-12T18:46:25.001Z,15.48
2023-03-12T18:51:27.813Z,16.58
2023-03-12T18:56:30.421Z,8.52
2023-03-12T19:06:52.892Z,13.93
2023-03-12T19:11:55.768Z,16.30
2023-03-12T19:16:58.342Z,19.05
2023-03-12T19:22:02.762Z,19.25
2023-03-12T19:27:04.982Z,19.00
2023-03-12T19:32:08.274Z,26.98
2023-03-12T19:37:10.691Z,18.73
2023-03-12T19:42:14.056Z,16.85
2023-03-12T19:47:18.332Z,17.38
2023-03-12T19:52:21.659Z,16.95
2023-03-12T19:57:24.836Z,15.35
2023-03-12T20:02:27.806Z,16.25
2023-03-12T20:07:30.105Z,16.48
2023-03-12T20:12:33.645Z,22.00
2023-03-12T20:17:36.605Z,20.23
2023-03-12T20:22:38.786Z,14.77
2023-03-12T20:27:41.869Z,12.77
2023-03-12T20:32:44.204Z,7.22
2023-03-12T20:37:46.583Z,4.72
2023-03-12T20:42:48.735Z,5.13
2023-03-12T20:47:51.637Z,6.13
2023-03-12T20:52:55.141Z,6.88
2023-03-12T20:57:57.322Z,11.30
2023-03-12T21:02:59.627Z,5.57
2023-03-12T21:08:02.099Z,4.07
2023-03-12T21:13:08.843Z,6.40
2023-03-12T21:18:11.928Z,10.45
2023-03-12T21:23:16.750Z,6.95
2023-03-12T21:28:19.782Z,5.93
2023-03-12T21:33:22.479Z,5.75
2023-03-12T21:38:25.467Z,4.32
2023-03-12T21:43:29.761Z,3.72
2023-03-12T21:48:32.059Z,2.78
2023-03-12T21:53:34.766Z,2.70
2023-03-12T21:58:37.555Z,2.60
2023-03-12T22:03:42.323Z,2.50
2023-03-12T22:08:48.985Z,3.08
2023-03-12T22:13:52.235Z,2.58
2023-03-12T22:18:54.566Z,2.40
2023-03-12T22:23:58.521Z,2.40
2023-03-12T22:29:02.598Z,1.85
2023-03-12T22:34:04.928Z,2.20
2023-03-12T22:39:07.248Z,2.50
2023-03-12T22:44:09.782Z,2.03
2023-03-12T22:49:12.097Z,2.55
2023-03-12T22:54:14.342Z,3.38
2023-03-12T22:59:16.511Z,2.22
2023-03-12T23:04:18.817Z,4.65
2023-03-12T23:09:21.138Z,4.40
2023-03-12T23:14:23.294Z,3.10
2023-03-12T23:19:25.478Z,2.92
2023-03-12T23:24:30.017Z,1.50
2023-03-12T23:29:33.334Z,1.60
2023-03-12T23:34:35.426Z,1.33
2023-03-12T23:39:53.506Z,1.50
2023-03-12T23:44:56.363Z,1.60
2023-03-12T23:49:59.360Z,1.60
2023-03-12T23:55:01.529Z,1.10
